Time;durP1;ratioP1;P1;durP2;ratioP2;P2;SDS_P1;SDS_P2;PMS_P1;PMS_P2;Temp;Humidity;BMP_temperature;BMP_pressure;BME280_temperature;BME280_humidity;BME280_pressure;Samples;Min_cycle;Max_cycle;Signal;HPM_P1;HPM_P2
2021/11/08 00:02:22;;;;;;;0.10;0.10;;;6.60;99.90;;;;;;5068794;28;20241;-73
2021/11/08 00:04:50;;;;;;;0.20;0.20;;;6.60;99.90;;;;;;5070193;28;20276;-74
2021/11/08 00:07:17;;;;;;;2.28;2.10;;;6.60;99.90;;;;;;5070121;28;20179;-74
2021/11/08 00:09:45;;;;;;;0.25;0.25;;;6.60;99.90;;;;;;5070198;28;20184;-73
2021/11/08 00:12:12;;;;;;;0.40;0.40;;;6.60;99.90;;;;;;5070090;28;20164;-74
2021/11/08 00:14:41;;;;;;;0.20;0.20;;;6.60;99.90;;;;;;5070030;28;20192;-74
2021/11/08 00:22:07;;;;;;;1.40;1.30;;;6.60;99.90;;;;;;5069934;28;20156;-72
2021/11/08 00:24:37;;;;;;;0.10;0.10;;;6.50;99.90;;;;;;5068667;28;20219;-72
2021/11/08 00:27:03;;;;;;;2.65;2.05;;;6.60;99.90;;;;;;5068557;28;20196;-74
2021/11/08 00:29:30;;;;;;;0.20;0.20;;;6.60;99.90;;;;;;5066596;28;20209;-74
2021/11/08 00:31:57;;;;;;;1.13;1.10;;;6.60;99.90;;;;;;5067346;28;20207;-75
2021/11/08 00:34:23;;;;;;;0.35;0.35;;;6.60;99.90;;;;;;5066645;28;20191;-74
2021/11/08 00:36:50;;;;;;;0.82;0.82;;;6.60;99.90;;;;;;5068146;28;20611;-73
2021/11/08 00:39:21;;;;;;;0.20;0.20;;;6.60;99.90;;;;;;5068268;28;20219;-74
2021/11/08 00:41:47;;;;;;;1.08;0.98;;;6.60;99.90;;;;;;5068252;28;20177;-73
2021/11/08 00:44:13;;;;;;;0.52;0.52;;;6.50;99.90;;;;;;5068256;28;20180;-74
2021/11/08 00:46:39;;;;;;;0.25;0.25;;;6.50;99.90;;;;;;5068158;28;20179;-73
2021/11/08 00:49:06;;;;;;;0.80;0.80;;;6.50;99.90;;;;;;5068102;28;20272;-73
2021/11/08 00:51:37;;;;;;;4.47;1.65;;;6.50;99.90;;;;;;5069408;28;20153;-74
2021/11/08 00:54:08;;;;;;;0.60;0.60;;;6.50;99.90;;;;;;5068989;28;20180;-74
2021/11/08 00:56:35;;;;;;;0.20;0.20;;;6.50;99.90;;;;;;5067840;28;20268;-74
2021/11/08 00:59:02;;;;;;;3.28;3.08;;;6.40;99.90;;;;;;5068205;28;20235;-72
2021/11/08 01:01:30;;;;;;;0.10;0.10;;;6.40;99.90;;;;;;5067950;28;20187;-73
2021/11/08 01:03:56;;;;;;;7.03;1.60;;;6.40;99.90;;;;;;5069207;28;20156;-73
2021/11/08 01:06:23;;;;;;;0.98;0.98;;;6.30;99.90;;;;;;5069237;28;20164;-74
2021/11/08 01:08:49;;;;;;;1.08;1.08;;;6.30;99.90;;;;;;5069026;28;20559;-74
2021/11/08 01:11:16;;;;;;;0.10;0.10;;;6.30;99.90;;;;;;5069042;28;20157;-74
2021/11/08 01:13:43;;;;;;;0.20;0.20;;;6.30;99.90;;;;;;5067636;28;20195;-75
2021/11/08 01:16:13;;;;;;;0.15;0.15;;;6.40;99.90;;;;;;5061319;28;20207;-73
2021/11/08 01:18:40;;;;;;;0.50;0.50;;;6.40;99.90;;;;;;5047509;28;20197;-73
2021/11/08 01:21:09;;;;;;;1.27;1.23;;;6.50;99.90;;;;;;5047577;28;20231;-73
2021/11/08 01:23:35;;;;;;;0.43;0.43;;;6.50;99.90;;;;;;5047732;28;20166;-75
2021/11/08 01:26:08;;;;;;;1.55;1.13;;;6.60;99.90;;;;;;5047721;28;20192;-74
2021/11/08 01:28:37;;;;;;;1.45;1.20;;;6.60;99.90;;;;;;5064109;28;20669;-75
2021/11/08 01:31:06;;;;;;;0.30;0.30;;;6.50;99.90;;;;;;5048981;28;20157;-73
2021/11/08 01:33:33;;;;;;;0.20;0.20;;;6.50;99.90;;;;;;5048847;28;20154;-73
2021/11/08 01:41:05;;;;;;;0.68;0.68;;;6.50;99.90;;;;;;5049862;28;20169;-73
2021/11/08 01:43:32;;;;;;;1.13;0.90;;;6.50;99.90;;;;;;5052879;28;20157;-73
2021/11/08 01:45:59;;;;;;;2.30;2.10;;;6.50;99.90;;;;;;5052768;28;20218;-73
2021/11/08 01:48:25;;;;;;;0.82;0.82;;;6.50;99.90;;;;;;5052657;28;20193;-74
2021/11/08 01:50:51;;;;;;;0.40;0.40;;;6.50;99.90;;;;;;5052805;28;20149;-72
2021/11/08 01:53:19;;;;;;;1.20;1.20;;;6.40;99.90;;;;;;5052609;28;20180;-73
2021/11/08 01:55:45;;;;;;;0.30;0.30;;;6.50;99.90;;;;;;5051339;28;20228;-73
2021/11/08 01:58:11;;;;;;;0.60;0.60;;;6.50;99.90;;;;;;5051045;28;20217;-73
2021/11/08 02:00:37;;;;;;;1.15;1.05;;;6.50;99.90;;;;;;5052536;28;20158;-73
2021/11/08 02:03:03;;;;;;;9.98;0.98;;;6.50;99.90;;;;;;5051144;28;20169;-72
2021/11/08 02:05:29;;;;;;;1.17;1.08;;;6.40;99.90;;;;;;5052526;28;20168;-74
2021/11/08 02:07:55;;;;;;;0.52;0.52;;;6.40;99.90;;;;;;5054324;28;20203;-74
2021/11/08 02:10:22;;;;;;;0.70;0.68;;;6.30;99.90;;;;;;5059581;28;20177;-73
2021/11/08 02:12:48;;;;;;;0.40;0.40;;;6.30;99.90;;;;;;5064855;28;20169;-73
2021/11/08 02:15:18;;;;;;;0.35;0.35;;;6.30;99.90;;;;;;5072216;28;20153;-73
2021/11/08 02:17:46;;;;;;;0.25;0.25;;;6.40;99.90;;;;;;5053640;28;20200;-73
2021/11/08 02:20:17;;;;;;;1.25;1.23;;;6.50;99.90;;;;;;5052292;28;20154;-74
2021/11/08 02:22:45;;;;;;;0.10;0.10;;;6.50;99.90;;;;;;5052096;28;20154;-74
2021/11/08 02:25:12;;;;;;;0.00;0.00;;;6.60;99.90;;;;;;5061333;28;20180;-74
2021/11/08 02:27:42;;;;;;;0.10;0.10;;;6.50;99.90;;;;;;5071829;28;20197;-73
2021/11/08 02:30:10;;;;;;;0.85;0.85;;;6.50;99.90;;;;;;5071952;28;20160;-74
2021/11/08 02:32:37;;;;;;;0.28;0.28;;;6.50;99.90;;;;;;5072010;28;20156;-73
2021/11/08 02:35:05;;;;;;;3.53;0.90;;;6.50;99.90;;;;;;5071899;28;20176;-72
2021/11/08 02:37:32;;;;;;;0.40;0.40;;;6.50;99.90;;;;;;5071441;28;20220;-72
2021/11/08 02:40:00;;;;;;;5.90;2.17;;;6.50;99.90;;;;;;5071693;28;20172;-73
2021/11/08 02:42:27;;;;;;;0.10;0.10;;;6.50;99.90;;;;;;5060777;28;20204;-73
2021/11/08 02:44:54;;;;;;;0.10;0.10;;;6.50;99.90;;;;;;5051645;28;20199;-72
2021/11/08 02:47:21;;;;;;;1.00;1.00;;;6.60;99.90;;;;;;5051584;28;20280;-73
2021/11/08 02:49:49;;;;;;;0.45;0.45;;;6.60;99.90;;;;;;5051472;28;20195;-72
2021/11/08 02:52:19;;;;;;;0.10;0.10;;;6.60;99.90;;;;;;5049496;28;20217;-74
2021/11/08 02:54:50;;;;;;;0.75;0.75;;;6.50;99.90;;;;;;5051978;28;20731;-72
2021/11/08 02:57:17;;;;;;;1.00;1.00;;;6.60;99.90;;;;;;5051358;28;20197;-72
2021/11/08 02:59:43;;;;;;;0.20;0.20;;;6.60;99.90;;;;;;5050107;28;20166;-72
2021/11/08 03:02:09;;;;;;;0.10;0.10;;;6.60;99.90;;;;;;5049958;28;20662;-72
2021/11/08 03:04:41;;;;;;;1.10;1.10;;;6.60;99.90;;;;;;5051080;28;20180;-72
2021/11/08 03:07:08;;;;;;;0.20;0.20;;;6.60;99.90;;;;;;5048896;28;20174;-72
2021/11/08 03:09:44;;;;;;;0.10;0.10;;;6.70;99.90;;;;;;5051226;28;20153;-72
2021/11/08 03:12:15;;;;;;;0.10;0.10;;;6.70;99.90;;;;;;5050929;28;20193;-72
2021/11/08 03:14:47;;;;;;;3.30;1.55;;;6.70;99.90;;;;;;5049782;28;20192;-72
2021/11/08 03:17:16;;;;;;;1.23;1.15;;;6.70;99.90;;;;;;5051011;28;20189;-72
2021/11/08 03:19:44;;;;;;;0.10;0.10;;;6.80;99.90;;;;;;5051143;28;20165;-72
2021/11/08 03:22:14;;;;;;;0.10;0.10;;;6.80;99.90;;;;;;5049685;28;20227;-74
2021/11/08 03:24:45;;;;;;;0.20;0.20;;;6.70;99.90;;;;;;5050914;28;20299;-73
2021/11/08 03:27:27;;;;;;;1.38;1.10;;;6.70;99.90;;;;;;5049634;28;20170;-74
2021/11/08 03:29:54;;;;;;;0.00;0.00;;;6.70;99.90;;;;;;5050855;28;20184;-73
2021/11/08 03:32:22;;;;;;;2.08;1.98;;;6.70;99.90;;;;;;5055765;28;20219;-72
2021/11/08 03:34:56;;;;;;;0.13;0.13;;;6.70;99.90;;;;;;5065990;28;20169;-72
2021/11/08 03:37:23;;;;;;;0.10;0.10;;;6.70;99.90;;;;;;5049151;28;20204;-73
2021/11/08 03:39:49;;;;;;;0.30;0.30;;;6.70;99.90;;;;;;5058771;28;20165;-73
2021/11/08 03:42:16;;;;;;;0.05;0.05;;;6.70;99.90;;;;;;5070057;28;20184;-72
2021/11/08 03:44:42;;;;;;;0.95;0.95;;;6.70;99.90;;;;;;5070580;28;20157;-73
2021/11/08 03:47:08;;;;;;;2.10;2.00;;;6.70;99.90;;;;;;5070572;28;20171;-73
2021/11/08 03:49:34;;;;;;;0.73;0.73;;;6.80;99.90;;;;;;5050497;28;20169;-72
2021/11/08 03:52:00;;;;;;;0.60;0.60;;;6.70;99.90;;;;;;5050260;28;20224;-73
2021/11/08 03:54:28;;;;;;;0.43;0.43;;;6.70;99.90;;;;;;5050181;28;20217;-73
2021/11/08 03:56:54;;;;;;;1.92;0.82;;;6.70;99.90;;;;;;5048868;28;20208;-73
2021/11/08 03:59:20;;;;;;;0.75;0.75;;;6.80;99.90;;;;;;5049041;28;20162;-73
2021/11/08 04:01:46;;;;;;;0.55;0.55;;;6.90;99.90;;;;;;5050023;28;20203;-74
2021/11/08 04:04:12;;;;;;;0.20;0.20;;;6.70;99.90;;;;;;5050129;28;20713;-74
2021/11/08 04:06:39;;;;;;;1.85;1.52;;;6.70;99.90;;;;;;5069822;28;20161;-73
2021/11/08 04:09:09;;;;;;;0.10;0.10;;;6.80;99.90;;;;;;5069788;28;20157;-73
2021/11/08 04:11:36;;;;;;;1.27;1.17;;;6.80;99.90;;;;;;5069960;28;20196;-73
2021/11/08 04:14:03;;;;;;;0.30;0.30;;;6.90;99.90;;;;;;5069931;28;20211;-73
2021/11/08 04:16:30;;;;;;;0.20;0.20;;;6.90;99.90;;;;;;5068570;28;20196;-74
2021/11/08 04:18:57;;;;;;;0.90;0.90;;;6.80;99.90;;;;;;5069805;28;20153;-73
2021/11/08 04:21:25;;;;;;;0.32;0.32;;;6.70;99.90;;;;;;5068130;28;20264;-73
2021/11/08 04:23:52;;;;;;;0.13;0.13;;;6.70;99.90;;;;;;5068397;28;20168;-73
2021/11/08 04:26:19;;;;;;;0.55;0.55;;;6.60;99.90;;;;;;5069769;28;20224;-73
2021/11/08 04:28:52;;;;;;;0.20;0.20;;;6.60;99.90;;;;;;5069586;28;20248;-74
2021/11/08 04:31:20;;;;;;;0.60;0.60;;;6.60;99.90;;;;;;5069409;28;20196;-74
2021/11/08 04:33:49;;;;;;;0.10;0.10;;;6.80;99.90;;;;;;5050941;28;20185;-74
2021/11/08 04:41:54;;;;;;;0.43;0.43;;;6.60;99.90;;;;;;5069210;28;20203;-74
2021/11/08 04:49:58;;;;;;;0.45;0.45;;;6.50;99.90;;;;;;5069021;28;20266;-74
2021/11/08 04:55:05;;;;;;;0.50;0.50;;;6.60;99.90;;;;;;5068797;28;20220;-74
2021/11/08 04:57:50;;;;;;;1.67;1.58;;;6.60;99.90;;;;;;5068893;28;20185;-73
2021/11/08 05:29:57;;;;;;;0.20;0.20;;;6.50;99.90;;;;;;5068841;28;20639;-73
2021/11/08 05:32:26;;;;;;;1.33;1.27;;;6.50;99.90;;;;;;5068523;28;20160;-73
2021/11/08 05:34:53;;;;;;;0.70;0.22;;;6.50;99.90;;;;;;5068803;28;20702;-73
2021/11/08 05:37:19;;;;;;;0.10;0.10;;;6.50;99.90;;;;;;5068494;28;20258;-73
2021/11/08 05:39:51;;;;;;;1.45;0.95;;;6.40;99.90;;;;;;5068465;28;20224;-73
2021/11/08 05:42:19;;;;;;;1.52;1.45;;;6.40;99.90;;;;;;5067035;28;20187;-74
2021/11/08 05:44:46;;;;;;;0.50;0.50;;;6.40;99.90;;;;;;5068357;28;20164;-74
2021/11/08 05:47:11;;;;;;;0.20;0.20;;;6.40;99.90;;;;;;5068373;28;20204;-74
2021/11/08 05:49:38;;;;;;;0.40;0.40;;;6.40;99.90;;;;;;5067269;28;20173;-74
2021/11/08 05:52:05;;;;;;;1.02;1.02;;;6.50;99.90;;;;;;5068143;28;20173;-74
2021/11/08 05:54:31;;;;;;;1.45;1.08;;;6.50;99.90;;;;;;5068337;28;20262;-74
2021/11/08 06:51:26;;;;;;;0.10;0.10;;;6.70;99.90;;;;;;5062454;28;20214;-75
2021/11/08 06:53:59;;;;;;;1.38;1.30;;;6.80;99.90;;;;;;5051175;28;20233;-75
2021/11/08 06:56:28;;;;;;;2.58;2.38;;;6.90;99.90;;;;;;5051276;28;20240;-75
2021/11/08 06:58:56;;;;;;;2.22;0.93;;;6.90;99.90;;;;;;5051504;28;20150;-75
2021/11/08 07:01:22;;;;;;;0.00;0.00;;;7.00;99.90;;;;;;5051356;28;20161;-76
2021/11/08 07:03:48;;;;;;;1.10;1.10;;;6.90;99.90;;;;;;5050056;28;20184;-75
2021/11/08 07:06:14;;;;;;;0.35;0.35;;;6.90;99.90;;;;;;5051089;28;20189;-75
2021/11/08 07:08:40;;;;;;;0.30;0.30;;;7.00;99.90;;;;;;5051175;28;20158;-75
2021/11/08 07:11:06;;;;;;;0.20;0.20;;;6.90;99.90;;;;;;5049978;28;20172;-74
2021/11/08 07:13:32;;;;;;;0.82;0.82;;;7.00;99.90;;;;;;5049763;28;20172;-75
2021/11/08 07:15:58;;;;;;;1.98;1.85;;;7.00;99.90;;;;;;5050883;28;20198;-74
2021/11/08 07:18:24;;;;;;;0.43;0.43;;;7.10;99.90;;;;;;5049586;28;20251;-75
2021/11/08 07:20:50;;;;;;;1.38;1.35;;;7.00;99.90;;;;;;5049756;28;20188;-74
2021/11/08 07:23:16;;;;;;;0.85;0.85;;;7.00;99.90;;;;;;5050828;28;20196;-73
2021/11/08 07:25:42;;;;;;;0.65;0.65;;;7.00;99.90;;;;;;5051064;28;20523;-74
2021/11/08 07:28:11;;;;;;;0.65;0.65;;;7.00;99.90;;;;;;5050917;28;20173;-74
2021/11/08 07:30:41;;;;;;;0.50;0.50;;;6.90;99.90;;;;;;5049719;28;20173;-74
2021/11/08 07:33:07;;;;;;;0.10;0.10;;;7.00;99.90;;;;;;5049138;28;20203;-73
2021/11/08 07:35:33;;;;;;;0.73;0.63;;;7.00;99.90;;;;;;5049515;28;20161;-74
2021/11/08 07:37:59;;;;;;;0.03;0.03;;;7.00;99.90;;;;;;5050620;28;20185;-74
2021/11/08 07:40:25;;;;;;;0.10;0.10;;;7.00;99.90;;;;;;5050037;28;20158;-73
2021/11/08 07:42:51;;;;;;;1.27;1.20;;;6.90;99.90;;;;;;5050373;28;20193;-74
2021/11/08 07:45:17;;;;;;;0.60;0.60;;;7.00;99.90;;;;;;5049175;28;20176;-73
2021/11/08 07:47:43;;;;;;;0.55;0.55;;;7.10;99.90;;;;;;5050754;28;20619;-74
2021/11/08 07:50:09;;;;;;;1.58;1.55;;;7.10;99.90;;;;;;5049156;28;20169;-74
2021/11/08 07:52:35;;;;;;;1.00;0.82;;;7.10;99.90;;;;;;5050297;28;20158;-74
2021/11/08 07:55:01;;;;;;;0.60;0.60;;;7.20;99.90;;;;;;5050162;28;20221;-74
2021/11/08 07:57:27;;;;;;;2.50;2.15;;;7.40;99.90;;;;;;5048863;28;20208;-74
2021/11/08 07:59:53;;;;;;;0.10;0.10;;;7.30;99.90;;;;;;5049963;28;20233;-74
2021/11/08 08:02:19;;;;;;;2.28;0.98;;;7.30;99.90;;;;;;5050328;28;20688;-74
2021/11/08 08:04:45;;;;;;;1.33;1.23;;;7.20;99.90;;;;;;5050193;28;20201;-74
2021/11/08 08:07:11;;;;;;;0.88;0.88;;;7.40;99.90;;;;;;5048828;28;20193;-74
2021/11/08 08:09:37;;;;;;;1.45;0.57;;;7.50;99.90;;;;;;5050215;28;20169;-74
2021/11/08 08:12:03;;;;;;;0.10;0.10;;;7.40;99.90;;;;;;5050028;28;20184;-73
2021/11/08 08:14:29;;;;;;;0.28;0.28;;;7.50;99.90;;;;;;5048567;28;20204;-75
2021/11/08 08:16:55;;;;;;;0.40;0.40;;;7.40;99.90;;;;;;5049875;28;20181;-74
2021/11/08 08:19:23;;;;;;;0.20;0.20;;;7.20;99.90;;;;;;5048773;28;20189;-74
2021/11/08 08:21:49;;;;;;;0.98;0.95;;;7.30;99.90;;;;;;5049880;28;20161;-74
2021/11/08 08:24:14;;;;;;;1.58;0.98;;;7.40;99.90;;;;;;5049559;28;20185;-75
2021/11/08 08:26:43;;;;;;;0.52;0.52;;;7.50;99.90;;;;;;5048468;28;20171;-74
2021/11/08 08:29:11;;;;;;;0.10;0.10;;;7.50;99.90;;;;;;5049620;28;20170;-74
2021/11/08 08:31:40;;;;;;;0.10;0.10;;;7.60;99.90;;;;;;5049633;28;20169;-74
2021/11/08 08:34:07;;;;;;;0.15;0.15;;;7.50;99.90;;;;;;5048100;28;20201;-74
2021/11/08 08:36:33;;;;;;;0.10;0.10;;;7.40;99.90;;;;;;5049595;28;20199;-73
2021/11/08 08:39:00;;;;;;;1.55;1.45;;;7.50;99.90;;;;;;5049534;28;20630;-73
2021/11/08 08:41:26;;;;;;;0.50;0.50;;;7.60;99.90;;;;;;5049167;28;20160;-74
2021/11/08 08:43:52;;;;;;;0.35;0.35;;;7.60;99.90;;;;;;5048148;28;20189;-74
2021/11/08 08:46:20;;;;;;;0.10;0.10;;;7.50;99.90;;;;;;5048177;28;20232;-74
2021/11/08 08:48:47;;;;;;;0.10;0.10;;;7.60;99.90;;;;;;5048211;28;20176;-75
2021/11/08 08:51:13;;;;;;;0.55;0.52;;;7.60;99.90;;;;;;5047640;28;20161;-75
2021/11/08 08:53:39;;;;;;;0.25;0.25;;;7.60;99.90;;;;;;5049172;28;20689;-74
2021/11/08 08:56:05;;;;;;;0.30;0.30;;;7.80;99.90;;;;;;5044411;28;20224;-74
2021/11/08 08:58:32;;;;;;;0.10;0.10;;;7.60;99.90;;;;;;5048010;28;20201;-74
2021/11/08 09:00:58;;;;;;;0.10;0.10;;;7.70;99.90;;;;;;5047669;28;20169;-74
2021/11/08 09:03:26;;;;;;;0.10;0.10;;;7.70;99.90;;;;;;5047503;28;20208;-74
2021/11/08 09:05:52;;;;;;;0.00;0.00;;;7.80;99.90;;;;;;5046492;28;20169;-73
2021/11/08 09:08:21;;;;;;;0.10;0.10;;;7.80;99.90;;;;;;5047580;28;20184;-74
2021/11/08 09:10:48;;;;;;;0.30;0.30;;;7.90;99.90;;;;;;5046339;28;20165;-72
2021/11/08 09:13:15;;;;;;;0.17;0.17;;;7.90;99.90;;;;;;5046309;28;20201;-73
2021/11/08 09:15:43;;;;;;;0.00;0.00;;;7.80;99.90;;;;;;5047664;28;20180;-73
2021/11/08 09:18:10;;;;;;;0.10;0.10;;;7.80;99.90;;;;;;5046997;28;20259;-73
2021/11/08 09:20:38;;;;;;;0.10;0.10;;;8.00;99.90;;;;;;5048601;28;20156;-74
2021/11/08 09:23:06;;;;;;;1.20;1.13;;;8.00;99.90;;;;;;5049513;28;20192;-74
2021/11/08 09:25:33;;;;;;;0.30;0.30;;;8.10;99.90;;;;;;5055694;28;20173;-74
2021/11/08 09:28:01;;;;;;;0.08;0.08;;;8.30;99.90;;;;;;5062966;28;20167;-73
2021/11/08 09:30:31;;;;;;;0.10;0.10;;;8.20;99.90;;;;;;5068825;28;20156;-72
2021/11/08 09:32:57;;;;;;;0.40;0.40;;;8.30;99.90;;;;;;5047454;28;20185;-74
2021/11/08 09:35:32;;;;;;;0.10;0.10;;;8.30;99.90;;;;;;5048823;28;20173;-73
2021/11/08 09:38:01;;;;;;;0.00;0.00;;;8.40;99.90;;;;;;5047287;28;20199;-72
2021/11/08 09:40:28;;;;;;;0.05;0.05;;;8.40;99.90;;;;;;5059179;28;20183;-75
2021/11/08 09:42:55;;;;;;;0.00;0.00;;;8.50;99.90;;;;;;5068588;28;20218;-74
2021/11/08 09:45:22;;;;;;;0.20;0.20;;;8.50;99.90;;;;;;5067228;28;20161;-74
2021/11/08 09:47:49;;;;;;;0.00;0.00;;;8.50;99.90;;;;;;5068186;28;20152;-74
2021/11/08 09:50:22;;;;;;;0.08;0.08;;;8.80;99.90;;;;;;5067355;28;20211;-74
2021/11/08 09:52:49;;;;;;;0.10;0.10;;;9.10;99.90;;;;;;5068360;28;20160;-73
2021/11/08 09:55:19;;;;;;;0.30;0.30;;;8.90;99.90;;;;;;5066986;28;20231;-73
2021/11/08 09:57:45;;;;;;;0.00;0.00;;;8.90;99.90;;;;;;5053482;28;20193;-73
2021/11/08 10:00:23;;;;;;;1.20;0.75;;;8.90;99.90;;;;;;5047284;28;20173;-74
2021/11/08 10:02:58;;;;;;;0.10;0.10;;;8.50;99.90;;;;;;5049330;28;20173;-74
2021/11/08 10:05:28;;;;;;;1.13;1.13;;;8.40;99.90;;;;;;5051186;28;20172;-74
2021/11/08 10:07:56;;;;;;;0.10;0.10;;;8.50;99.90;;;;;;5052429;28;20153;-74
2021/11/08 10:10:22;;;;;;;0.03;0.03;;;8.70;99.90;;;;;;5052504;28;20226;-74
2021/11/08 10:12:52;;;;;;;0.00;0.00;;;8.40;99.90;;;;;;5051128;28;20178;-74
2021/11/08 10:15:19;;;;;;;0.10;0.10;;;8.60;99.90;;;;;;5050824;28;20169;-74
2021/11/08 10:17:50;;;;;;;0.30;0.30;;;8.70;99.90;;;;;;5050981;28;20201;-78
2021/11/08 10:20:42;;;;;;;0.00;0.00;;;8.60;99.90;;;;;;5051083;28;20185;-78
2021/11/08 10:23:11;;;;;;;0.10;0.10;;;8.40;99.90;;;;;;5051479;28;20216;-78
2021/11/08 10:25:40;;;;;;;0.10;0.10;;;8.80;99.90;;;;;;5070834;28;20165;-79
2021/11/08 10:28:22;;;;;;;0.10;0.10;;;8.80;99.90;;;;;;5070690;28;20172;-78
2021/11/08 10:30:59;;;;;;;0.10;0.10;;;8.90;99.90;;;;;;5070447;28;20623;-78
2021/11/08 10:33:30;;;;;;;0.22;0.22;;;8.90;99.90;;;;;;5070440;28;20196;-78
2021/11/08 10:36:04;;;;;;;0.00;0.00;;;9.60;99.90;;;;;;5072044;28;20183;-79
2021/11/08 10:38:33;;;;;;;0.00;0.00;;;10.60;99.90;;;;;;5072005;28;20208;-79
2021/11/08 10:41:07;;;;;;;0.10;0.10;;;10.10;99.90;;;;;;5070724;28;20164;-79
2021/11/08 10:43:46;;;;;;;0.00;0.00;;;9.40;99.90;;;;;;5070293;28;20677;-78
2021/11/08 10:46:24;;;;;;;0.10;0.10;;;9.20;99.90;;;;;;5070522;28;20641;-78
2021/11/08 10:48:53;;;;;;;0.00;0.00;;;9.10;99.90;;;;;;5070161;28;20190;-77
2021/11/08 10:51:23;;;;;;;0.00;0.00;;;10.00;99.90;;;;;;5071635;28;20185;-78
2021/11/08 10:53:51;;;;;;;0.00;0.00;;;12.10;99.90;;;;;;5070008;28;20254;-78
2021/11/08 10:56:26;;;;;;;1.42;0.45;;;12.30;99.90;;;;;;5071174;28;20224;-78
2021/11/08 10:58:54;;;;;;;0.10;0.10;;;11.70;99.90;;;;;;5071368;28;20598;-79
2021/11/08 11:01:31;;;;;;;0.10;0.10;;;11.20;99.90;;;;;;5071103;28;20160;-77
2021/11/08 11:03:59;;;;;;;0.35;0.35;;;11.00;99.90;;;;;;5069626;28;20195;-77
2021/11/08 11:06:36;;;;;;;0.00;0.00;;;11.10;99.90;;;;;;5071152;28;20157;-78
2021/11/08 11:09:27;;;;;;;1.00;1.00;;;10.70;99.90;;;;;;5071278;28;20153;-78
2021/11/08 11:12:15;;;;;;;0.10;0.10;;;10.90;99.90;;;;;;5069899;28;20180;-78
2021/11/08 11:14:42;;;;;;;0.00;0.00;;;11.10;99.90;;;;;;5068521;28;20220;-77
2021/11/08 11:17:12;;;;;;;0.00;0.00;;;12.10;99.90;;;;;;5071040;28;20188;-75
2021/11/08 11:19:38;;;;;;;0.38;0.38;;;12.50;99.90;;;;;;5069723;28;20196;-77
2021/11/08 11:22:08;;;;;;;0.00;0.00;;;13.20;99.90;;;;;;5069889;28;20196;-77
2021/11/08 11:24:41;;;;;;;0.00;0.00;;;12.80;99.90;;;;;;5062308;28;20201;-76
2021/11/08 11:27:16;;;;;;;0.20;0.20;;;12.40;99.90;;;;;;5050902;28;20653;-76
2021/11/08 11:29:43;;;;;;;0.00;0.00;;;13.20;99.90;;;;;;5050995;28;20168;-77
2021/11/08 11:32:27;;;;;;;0.00;0.00;;;13.10;99.90;;;;;;5065124;28;20173;-76
2021/11/08 11:34:57;;;;;;;0.08;0.08;;;13.30;99.90;;;;;;5069478;28;20259;-76
2021/11/08 11:37:26;;;;;;;0.00;0.00;;;13.10;99.90;;;;;;5070471;28;20252;-78
2021/11/08 11:40:08;;;;;;;0.20;0.20;;;13.80;99.90;;;;;;5069056;28;20157;-78
2021/11/08 11:42:48;;;;;;;0.00;0.00;;;13.30;99.90;;;;;;5069063;28;20161;-79
2021/11/08 11:45:15;;;;;;;0.00;0.00;;;13.60;99.90;;;;;;5069089;28;20170;-77
2021/11/08 11:47:41;;;;;;;0.08;0.08;;;13.00;99.90;;;;;;5070413;28;20164;-79
2021/11/08 11:50:08;;;;;;;0.10;0.10;;;13.30;99.90;;;;;;5069077;28;20176;-77
2021/11/08 11:52:43;;;;;;;0.00;0.00;;;13.10;99.90;;;;;;5069096;28;20644;-78
2021/11/08 11:55:10;;;;;;;0.10;0.10;;;12.60;99.90;;;;;;5068013;28;20256;-77
2021/11/08 11:57:36;;;;;;;0.00;0.00;;;12.60;99.90;;;;;;5068585;28;20709;-77
2021/11/08 12:00:05;;;;;;;0.00;0.00;;;11.80;99.90;;;;;;5070228;28;20157;-78
2021/11/08 12:02:31;;;;;;;0.00;0.00;;;11.80;99.90;;;;;;5069787;28;20153;-76
2021/11/08 12:04:57;;;;;;;0.00;0.00;;;11.30;99.90;;;;;;5070049;28;20262;-77
2021/11/08 12:07:23;;;;;;;0.00;0.00;;;10.90;99.90;;;;;;5068792;28;20177;-77
2021/11/08 12:09:50;;;;;;;0.00;0.00;;;10.70;99.90;;;;;;5069602;28;20157;-76
2021/11/08 12:12:24;;;;;;;0.50;0.50;;;10.30;99.90;;;;;;5068701;28;20172;-77
2021/11/08 12:15:24;;;;;;;0.10;0.10;;;10.10;99.90;;;;;;5070060;28;20279;-76
2021/11/08 12:17:50;;;;;;;0.13;0.13;;;10.20;99.90;;;;;;5069855;28;20312;-77
2021/11/08 12:20:18;;;;;;;0.25;0.25;;;10.20;99.90;;;;;;5069821;28;20156;-80
2021/11/08 12:22:44;;;;;;;0.00;0.00;;;10.30;99.90;;;;;;5069474;28;20209;-79
2021/11/08 12:25:20;;;;;;;0.10;0.10;;;10.40;99.90;;;;;;5058881;28;20200;-79
2021/11/08 12:27:54;;;;;;;0.00;0.00;;;10.50;99.90;;;;;;5069631;28;20160;-79
2021/11/08 12:30:30;;;;;;;0.20;0.20;;;10.40;99.90;;;;;;5068665;28;20176;-82
2021/11/08 12:32:59;;;;;;;0.10;0.10;;;10.40;99.90;;;;;;5069361;28;20163;-80
2021/11/08 12:35:36;;;;;;;0.25;0.25;;;10.40;99.90;;;;;;5068253;28;20195;-79
2021/11/08 12:38:18;;;;;;;0.40;0.40;;;10.30;99.90;;;;;;5067860;28;20224;-77
2021/11/08 12:40:45;;;;;;;0.20;0.20;;;9.90;99.90;;;;;;5068403;28;20407;-77
2021/11/08 12:43:26;;;;;;;0.10;0.10;;;9.90;99.90;;;;;;5069040;28;20192;-77
2021/11/08 12:45:53;;;;;;;0.00;0.00;;;9.80;99.90;;;;;;5067497;28;20215;-78
2021/11/08 12:48:19;;;;;;;0.10;0.10;;;9.80;99.90;;;;;;5068054;28;20171;-77
2021/11/08 12:50:49;;;;;;;1.27;0.63;;;9.70;99.90;;;;;;5069536;28;20165;-75
2021/11/08 12:53:30;;;;;;;0.20;0.20;;;9.70;99.90;;;;;;5069124;28;20196;-79
2021/11/08 12:56:18;;;;;;;0.10;0.10;;;9.80;99.90;;;;;;5068800;28;20227;-75
2021/11/08 12:58:47;;;;;;;0.10;0.10;;;9.90;99.90;;;;;;5069149;28;20203;-75
2021/11/08 13:01:19;;;;;;;0.43;0.35;;;9.80;99.90;;;;;;5068514;28;20161;-75
2021/11/08 13:03:49;;;;;;;0.00;0.00;;;9.80;99.90;;;;;;5069168;28;20188;-77
2021/11/08 13:06:27;;;;;;;0.00;0.00;;;9.80;99.90;;;;;;5067137;28;20199;-76
2021/11/08 13:09:24;;;;;;;0.20;0.20;;;9.90;99.90;;;;;;5085270;28;20171;-76
2021/11/08 13:11:56;;;;;;;0.10;0.10;;;9.90;99.90;;;;;;5089278;28;20337;-76
2021/11/08 13:14:27;;;;;;;0.10;0.10;;;10.00;99.90;;;;;;5099073;28;20239;-77
2021/11/08 13:17:07;;;;;;;0.05;0.05;;;9.90;99.90;;;;;;5085183;28;20717;-76
2021/11/08 13:19:40;;;;;;;0.10;0.10;;;10.10;99.90;;;;;;5092326;28;20166;-76
2021/11/08 13:22:12;;;;;;;0.20;0.20;;;10.00;99.90;;;;;;5089239;28;20179;-75
2021/11/08 13:24:39;;;;;;;0.70;0.70;;;9.80;99.90;;;;;;5086371;28;20201;-76
2021/11/08 13:27:07;;;;;;;0.10;0.10;;;9.80;99.90;;;;;;5104642;28;20254;-76
2021/11/08 13:29:33;;;;;;;0.10;0.10;;;9.90;99.90;;;;;;5101354;28;20195;-76
2021/11/08 13:31:59;;;;;;;0.00;0.00;;;9.80;99.90;;;;;;5085532;28;20233;-76
2021/11/08 13:34:25;;;;;;;0.35;0.35;;;9.70;99.90;;;;;;5077457;28;20210;-76
2021/11/08 13:36:51;;;;;;;0.00;0.00;;;9.80;99.90;;;;;;5086855;28;20195;-76
2021/11/08 13:39:21;;;;;;;0.10;0.10;;;9.70;99.90;;;;;;5090599;28;20335;-76
2021/11/08 13:41:47;;;;;;;0.38;0.38;;;9.70;99.90;;;;;;5089984;28;20219;-76
2021/11/08 13:44:14;;;;;;;2.03;1.92;;;9.70;99.90;;;;;;5087617;28;20251;-78
2021/11/08 13:46:48;;;;;;;0.10;0.10;;;9.70;99.90;;;;;;5087946;28;20160;-75
2021/11/08 13:49:16;;;;;;;0.10;0.10;;;9.60;99.90;;;;;;5050146;28;20188;-74
2021/11/08 13:51:46;;;;;;;0.03;0.03;;;9.60;99.90;;;;;;5048646;28;20299;-78
2021/11/08 13:54:14;;;;;;;0.10;0.10;;;9.50;99.90;;;;;;5048713;28;20197;-76
2021/11/08 13:56:53;;;;;;;0.10;0.10;;;9.50;99.90;;;;;;5050372;28;20214;-75
2021/11/08 13:59:26;;;;;;;0.08;0.08;;;9.40;99.90;;;;;;5052056;28;20211;-76
2021/11/08 14:02:05;;;;;;;0.15;0.15;;;9.50;99.90;;;;;;5050734;28;20173;-76
2021/11/08 14:04:56;;;;;;;0.10;0.10;;;9.40;99.90;;;;;;5052325;28;20189;-78
2021/11/08 14:07:24;;;;;;;1.15;0.55;;;9.40;99.90;;;;;;5052881;28;20250;-79
2021/11/08 14:09:52;;;;;;;0.10;0.10;;;9.40;99.90;;;;;;5051055;28;20222;-77
2021/11/08 14:12:20;;;;;;;0.10;0.10;;;9.40;99.90;;;;;;5051975;28;20180;-76
2021/11/08 14:14:48;;;;;;;0.10;0.10;;;9.30;99.90;;;;;;5052072;28;20193;-78
2021/11/08 14:17:22;;;;;;;0.10;0.10;;;9.40;99.90;;;;;;5052020;28;20193;-77
2021/11/08 14:19:54;;;;;;;0.22;0.22;;;9.30;99.90;;;;;;5050611;28;20184;-78
2021/11/08 14:22:29;;;;;;;0.20;0.20;;;9.30;99.90;;;;;;5050353;28;20707;-78
2021/11/08 14:24:57;;;;;;;0.20;0.20;;;9.40;99.90;;;;;;5061112;28;20200;-78
2021/11/08 14:27:27;;;;;;;0.60;0.60;;;9.40;99.90;;;;;;5052066;28;20547;-78
2021/11/08 14:29:53;;;;;;;0.10;0.10;;;9.40;99.90;;;;;;5050814;28;20165;-78
2021/11/08 14:32:22;;;;;;;0.00;0.00;;;9.40;99.90;;;;;;5068810;28;20177;-78
2021/11/08 14:35:06;;;;;;;0.10;0.10;;;9.40;99.90;;;;;;5070501;28;20200;-78
2021/11/08 14:37:48;;;;;;;0.10;0.10;;;9.40;99.90;;;;;;5072057;28;20204;-78
2021/11/08 14:40:18;;;;;;;9.43;1.85;;;9.40;99.90;;;;;;5071732;28;20153;-78
2021/11/08 14:42:45;;;;;;;0.13;0.13;;;9.40;99.90;;;;;;5071519;28;20248;-78
2021/11/08 14:45:31;;;;;;;1.30;1.20;;;9.30;99.90;;;;;;5069988;28;20192;-78
2021/11/08 14:48:00;;;;;;;0.32;0.32;;;9.30;99.90;;;;;;5070288;28;20241;-78
2021/11/08 14:50:29;;;;;;;0.20;0.20;;;9.30;99.90;;;;;;5070086;28;20189;-78
2021/11/08 14:52:58;;;;;;;0.10;0.10;;;9.20;99.90;;;;;;5071341;28;20173;-77
2021/11/08 14:55:32;;;;;;;0.08;0.08;;;9.40;99.90;;;;;;5069947;28;20228;-78